• Join FlightAware (Why Join?)
  • Login
  • US Flag 
05:47PM EDT


 

Airport Tracker/Info


-or-


 

Live Flight TrackerFlight Track Log ✈ CTL15 ✈ 14-May-2013 ✈ KMGY - KBKL

Flight Track Log - Related Links

Times and Time Zones

All times are in EDT time to prevent confusion due to time zone crossing. See the CTL15 flight status page for this flight to view local times or setup timezone preferences in your user account.

Time Position Orientation Groundspeed Altitude Reporting Facility
EDT Latitude Longitude Course Direction KTS MPH feet Rate Location/Type
07:40PM 39.5772 -84.1989 43° Northeast 140 161 1,900  Level Indianapolis Center
07:42PM 39.6314 -84.1322 43° Northeast 157 181 3,200 660 Climbing Indianapolis Center
07:43PM 39.6669 -84.0919 41° Northeast 163 188 3,900 720 Climbing Indianapolis Center
07:44PM 39.7017 -84.0511 42° Northeast 166 191 4,700 720 Climbing Indianapolis Center
07:45PM 39.7414 -84.0036 43° Northeast 172 198 5,400 660 Climbing Indianapolis Center
07:46PM 39.7739 -83.9617 45° Northeast 168 193 6,100 720 Climbing Indianapolis Center
07:47PM 39.8069 -83.9142 48° Northeast 164 189 6,900 420 Climbing Indianapolis Center
07:48PM 39.8400 -83.8681 47° Northeast 167 192 7,000  Climbing Indianapolis Center
07:49PM 39.8772 -83.8211 44° Northeast 176 203 6,900 -60 Descending Indianapolis Center
07:50PM 39.9111 -83.7808 42° Northeast 189 217 6,900  Level Indianapolis Center
07:51PM 39.9464 -83.7308 47° Northeast 187 215 6,900  Level Indianapolis Center
07:52PM 39.9928 -83.6711 45° Northeast 184 212 6,900  Level Indianapolis Center
07:53PM 40.0258 -83.6261 46° Northeast 185 213 7,000  Climbing Indianapolis Center
07:54PM 40.0647 -83.5819 41° Northeast 184 212 6,900  Descending Indianapolis Center
07:55PM 40.0964 -83.5425 44° Northeast 183 211 7,000 60 Climbing Indianapolis Center
07:55PM 40.1019 -83.5358 43° Northeast 183 211 7,000 60 Level Indianapolis Center
07:56PM 40.1392 -83.4903 43° Northeast 182 209 7,100 -60 Climbing Indianapolis Center
07:57PM 40.1789 -83.4433 42° Northeast 182 209 6,900  Descending Indianapolis Center
07:58PM 40.2236 -83.3961 39° Northeast 182 209 7,100  Climbing Indianapolis Center
07:59PM 40.2522 -83.3567 46° Northeast 187 215 7,000 -120 Descending Indianapolis Center
07:59PM 40.2600 -83.3475 42° Northeast 183 211 7,000 -120 Level Indianapolis Center
08:00PM 40.2936 -83.3044 44° Northeast 188 216 6,900 -60 Descending Indianapolis Center
08:01PM 40.3369 -83.2522 43° Northeast 188 216 6,900  Level Indianapolis Center
08:02PM 40.3744 -83.2053 44° Northeast 187 215 7,000  Climbing Indianapolis Center
08:03PM 40.4128 -83.1586 43° Northeast 187 215 6,900 -60 Descending Indianapolis Center
08:04PM 40.4489 -83.1103 46° Northeast 185 213 6,900  Level Indianapolis Center
08:05PM 40.4869 -83.0636 43° Northeast 185 213 6,900  Level Indianapolis Center
08:06PM 40.5239 -83.0158 45° Northeast 187 215 6,900  Level Indianapolis Center
08:07PM 40.5683 -82.9622 42° Northeast 186 214 6,900  Level Indianapolis Center
08:08PM 40.6050 -82.9150 44° Northeast 184 212 7,000  Climbing Indianapolis Center
08:09PM 40.6458 -82.8692 40° Northeast 190 219 7,000 -60 Level Indianapolis Center
08:11PM 40.6839 -82.8217 43° Northeast 189 217 6,900 -60 Descending Indianapolis Center
08:12PM 40.7219 -82.7761 42° Northeast 185 213 6,900  Level Indianapolis Center
08:13PM 40.7611 -82.7292 42° Northeast 188 216 6,900 -300 Level Indianapolis Center
08:14PM 40.8011 -82.6783 44° Northeast 196 226 6,400 -540 Descending Indianapolis Center